Airport ID:KTSP
Update Time (UTC):22 NOV 17 10:38
Wind Speed (Knots):8
Wind Direction (Magnetic):110
Temperature (°C):8
Dew Point (°C):-2
Humidity (%):52
Altimeter (inHg):30.3
Density Altitude (Feet):
Visibility (Miles):10
Clouds (Hundreds of feet):CLR
Present Weather:NO PRECIPITATION
METAR:METAR KTSP 221035Z AUTO 13008KT 10SM CLR 08/M02 A3030 RMK AO2

The data displayed is for advisory purposes only and is not to be used for flight planning or operations.

This page is not automatically refreshed. Reload the page to see current data.